createdAt,value
2024-03-24T00:00:13.134Z,85.4867
2024-03-24T00:01:16.161Z,86.2488
2024-03-24T00:02:19.195Z,85.7409
2024-03-24T00:03:22.215Z,85.8963
2024-03-24T00:04:25.288Z,84.2128
2024-03-24T00:05:28.323Z,85.8448
2024-03-24T00:06:31.367Z,85.1076
2024-03-24T00:07:34.396Z,84.5167
2024-03-24T00:08:37.442Z,84.4767
2024-03-24T00:09:40.495Z,85.3430
2024-03-24T00:10:43.533Z,84.0598
2024-03-24T00:11:46.574Z,84.3376
2024-03-24T00:12:49.599Z,84.9292
2024-03-24T00:13:52.652Z,84.7426
2024-03-24T00:14:55.686Z,84.8816
2024-03-24T00:15:59.066Z,85.4348
2024-03-24T00:17:02.121Z,84.1104
2024-03-24T00:18:05.126Z,84.5607
2024-03-24T00:19:08.219Z,84.5826
2024-03-24T00:20:11.252Z,83.6529
2024-03-24T00:21:14.261Z,84.3773
2024-03-24T00:22:17.550Z,83.7173
2024-03-24T00:23:20.590Z,84.2145
2024-03-24T00:24:23.728Z,82.4626
2024-03-24T00:25:26.734Z,82.8816
2024-03-24T00:26:29.769Z,82.3717
2024-03-24T00:27:32.745Z,82.8080
2024-03-24T00:28:35.921Z,84.0299
2024-03-24T00:29:38.939Z,83.8438
2024-03-24T00:30:41.900Z,84.4594
2024-03-24T00:31:44.983Z,83.8038
2024-03-24T00:32:48.018Z,83.9022
2024-03-24T00:33:51.040Z,83.6261
2024-03-24T00:34:54.410Z,82.9988
2024-03-24T00:35:57.608Z,82.8472
2024-03-24T00:37:00.797Z,83.3805
2024-03-24T00:38:03.825Z,83.7886
2024-03-24T00:39:06.883Z,83.8814
2024-03-24T00:40:09.918Z,83.9241
2024-03-24T00:41:12.909Z,84.5688
2024-03-24T00:42:16.004Z,83.7929
2024-03-24T00:43:19.058Z,83.7858
2024-03-24T00:44:22.099Z,83.2077
2024-03-24T00:45:25.146Z,84.8274
2024-03-24T00:46:28.180Z,83.9251
2024-03-24T00:47:31.244Z,84.7911
2024-03-24T00:48:34.247Z,85.2294
2024-03-24T00:49:37.244Z,84.6504
2024-03-24T00:50:40.347Z,84.8125
2024-03-24T00:51:43.362Z,84.3830
2024-03-24T00:52:46.669Z,84.7228
2024-03-24T00:53:49.766Z,84.4078
2024-03-24T00:54:52.787Z,84.8117
2024-03-24T00:55:55.844Z,84.0779
2024-03-24T00:56:58.901Z,84.2374
2024-03-24T00:58:02.275Z,85.4241
2024-03-24T00:59:05.286Z,85.9363
2024-03-24T01:00:08.324Z,86.6860
2024-03-24T01:01:11.391Z,86.0316
2024-03-24T01:02:14.355Z,86.5031
2024-03-24T01:03:17.451Z,85.9476
2024-03-24T01:04:20.507Z,85.8887
2024-03-24T01:05:23.556Z,86.7549
2024-03-24T01:06:26.601Z,86.3684
2024-03-24T01:07:29.676Z,86.8861
2024-03-24T01:08:32.724Z,86.6357
2024-03-24T01:09:35.712Z,86.5301
2024-03-24T01:10:38.752Z,86.5346
2024-03-24T01:11:41.900Z,86.5387
2024-03-24T01:12:44.883Z,86.8855
2024-03-24T01:13:47.900Z,87.4982
2024-03-24T01:14:50.904Z,87.3405
2024-03-24T01:15:53.930Z,87.8421
2024-03-24T01:16:56.893Z,88.0055
2024-03-24T01:18:00.015Z,87.7314
2024-03-24T01:19:03.094Z,87.2248
2024-03-24T01:20:06.073Z,87.4960
2024-03-24T01:21:09.150Z,87.8225
2024-03-24T01:22:12.202Z,88.3059
2024-03-24T01:23:15.198Z,88.2806
2024-03-24T01:24:18.250Z,87.9801
2024-03-24T01:25:21.292Z,88.1197
2024-03-24T01:26:24.392Z,88.2894
2024-03-24T01:27:27.422Z,88.7393
2024-03-24T01:28:30.542Z,88.4321
2024-03-24T01:29:33.532Z,88.4102
2024-03-24T01:30:36.581Z,88.7691
2024-03-24T01:31:39.652Z,88.7656
2024-03-24T01:32:42.652Z,88.2436
2024-03-24T01:33:45.673Z,88.1470
2024-03-24T01:34:48.967Z,88.6703
2024-03-24T01:35:52.045Z,88.6174
2024-03-24T01:36:55.061Z,89.4078
2024-03-24T01:37:58.062Z,89.7199
2024-03-24T01:39:01.132Z,89.5109
2024-03-24T01:40:04.167Z,89.9984
2024-03-24T01:41:07.189Z,90.3275
2024-03-24T01:42:10.196Z,89.6266
2024-03-24T01:43:13.298Z,90.2064
2024-03-24T01:44:16.342Z,90.7340
2024-03-24T01:45:19.353Z,89.4543
2024-03-24T01:46:22.462Z,90.1822
2024-03-24T01:47:25.486Z,90.0195
2024-03-24T01:48:28.493Z,90.7447
2024-03-24T01:49:31.675Z,91.0385
2024-03-24T01:50:34.703Z,90.9258
2024-03-24T01:51:37.684Z,91.6810
2024-03-24T01:52:40.715Z,91.6352
2024-03-24T01:53:43.684Z,91.4165
2024-03-24T01:54:46.746Z,91.5828
2024-03-24T01:55:49.763Z,91.9397
2024-03-24T01:56:52.821Z,91.8262
2024-03-24T01:57:55.867Z,92.2822
2024-03-24T01:58:58.915Z,92.5784
2024-03-24T02:00:01.915Z,92.3345
2024-03-24T02:01:04.936Z,92.1825
2024-03-24T02:02:07.946Z,92.1991
2024-03-24T02:03:11.023Z,92.1035
2024-03-24T02:04:14.132Z,92.1547
2024-03-24T02:05:17.088Z,92.4348
2024-03-24T02:06:20.131Z,93.0048
2024-03-24T02:07:23.166Z,93.1627
2024-03-24T02:08:26.190Z,92.6122
2024-03-24T02:09:29.234Z,92.7752
2024-03-24T02:10:32.275Z,93.3718
2024-03-24T02:11:35.318Z,93.6383
2024-03-24T02:12:38.312Z,93.6980
2024-03-24T02:13:41.426Z,93.7620
2024-03-24T02:14:44.441Z,93.3181
2024-03-24T02:15:47.467Z,93.1610
2024-03-24T02:16:50.535Z,93.4082
2024-03-24T02:17:57.815Z,93.8758
2024-03-24T02:18:55.646Z,93.8364
2024-03-24T02:19:58.644Z,93.8009
2024-03-24T02:21:01.726Z,93.9478
2024-03-24T02:22:04.755Z,93.8663
2024-03-24T02:23:07.914Z,94.1198
2024-03-24T02:24:10.907Z,94.2891
2024-03-24T02:25:13.920Z,94.3743
2024-03-24T02:26:17.267Z,94.5861
2024-03-24T02:27:20.344Z,94.6259
2024-03-24T02:28:23.384Z,94.8286
2024-03-24T02:29:26.674Z,94.8361
2024-03-24T02:30:26.588Z,94.8189
2024-03-24T02:31:29.577Z,94.8958
2024-03-24T02:32:32.669Z,95.0914
2024-03-24T02:33:35.703Z,95.4554
2024-03-24T02:34:38.723Z,95.3587
2024-03-24T02:35:41.726Z,95.4676
2024-03-24T02:36:44.753Z,95.3916
2024-03-24T02:37:47.799Z,95.4668
2024-03-24T02:38:50.844Z,95.8285
2024-03-24T02:39:53.952Z,95.6652
2024-03-24T02:40:56.985Z,95.8252
2024-03-24T02:42:00.072Z,95.8304
2024-03-24T02:43:03.109Z,95.9530
2024-03-24T02:44:06.149Z,95.9521
2024-03-24T02:45:09.244Z,95.8062
2024-03-24T02:46:12.273Z,95.8623
2024-03-24T02:47:15.488Z,95.9110
2024-03-24T02:48:18.532Z,96.2903
2024-03-24T02:49:21.554Z,96.2952
2024-03-24T02:50:24.586Z,96.1344
2024-03-24T02:51:27.906Z,96.0137
2024-03-24T02:52:30.993Z,96.2774
2024-03-24T02:53:34.068Z,96.0344
2024-03-24T02:54:37.136Z,95.8931
2024-03-24T02:55:40.136Z,95.9587
2024-03-24T02:56:43.154Z,95.5913
2024-03-24T02:57:46.353Z,95.9428
2024-03-24T02:58:49.351Z,95.8179
2024-03-24T02:59:52.617Z,95.8419
2024-03-24T03:00:55.624Z,96.0531
2024-03-24T03:01:58.677Z,96.2862
2024-03-24T03:03:01.712Z,96.3265
2024-03-24T03:04:04.708Z,95.9189
2024-03-24T03:05:07.811Z,95.9991
2024-03-24T03:06:11.170Z,96.0836
2024-03-24T03:07:14.174Z,95.5579
2024-03-24T03:08:17.195Z,95.5645
2024-03-24T03:09:20.285Z,95.9013
2024-03-24T03:10:23.324Z,95.9653
2024-03-24T03:11:26.341Z,95.9798
2024-03-24T03:12:29.421Z,96.3405
2024-03-24T03:13:32.409Z,96.3320
2024-03-24T03:14:35.478Z,96.0187
2024-03-24T03:15:38.687Z,95.4253
2024-03-24T03:16:41.692Z,95.1048
2024-03-24T03:17:44.673Z,94.9614
2024-03-24T03:18:47.963Z,95.1914
2024-03-24T03:19:50.990Z,95.2520
2024-03-24T03:20:54.043Z,95.4529
2024-03-24T03:21:57.042Z,95.4988
2024-03-24T03:23:00.144Z,95.5812
2024-03-24T03:24:03.159Z,95.6280
2024-03-24T03:25:06.205Z,95.3552
2024-03-24T03:26:09.240Z,95.1016
2024-03-24T03:27:12.229Z,94.9469
2024-03-24T03:28:15.333Z,95.2438
2024-03-24T03:29:18.364Z,95.3489
2024-03-24T03:30:21.443Z,95.5968
2024-03-24T03:31:24.443Z,95.8829
2024-03-24T03:32:27.498Z,95.7717
2024-03-24T03:33:30.555Z,95.9347
2024-03-24T03:34:33.565Z,95.8849
2024-03-24T03:35:36.604Z,96.1957
2024-03-24T03:36:39.640Z,96.4040
2024-03-24T03:37:42.735Z,96.5199
2024-03-24T03:38:45.818Z,96.9557
2024-03-24T03:39:48.882Z,96.9374
2024-03-24T03:40:51.901Z,97.0857
2024-03-24T03:41:55.166Z,97.3385
2024-03-24T03:42:58.189Z,97.0503
2024-03-24T03:44:01.255Z,96.9203
2024-03-24T03:45:04.281Z,97.0481
2024-03-24T03:46:07.320Z,97.2413
2024-03-24T03:47:10.306Z,97.1837
2024-03-24T03:48:13.398Z,97.3947
2024-03-24T03:49:16.523Z,97.4450
2024-03-24T03:50:19.574Z,97.3598
2024-03-24T03:51:22.618Z,97.2390
2024-03-24T03:52:25.668Z,97.4678
2024-03-24T03:53:28.686Z,97.7100
2024-03-24T03:54:31.731Z,97.7214
2024-03-24T03:55:34.750Z,97.7150
2024-03-24T03:56:37.861Z,97.5297
2024-03-24T03:57:40.867Z,97.6132
2024-03-24T03:58:43.891Z,97.4966
2024-03-24T03:59:46.987Z,97.4363
2024-03-24T04:00:49.949Z,97.0205
2024-03-24T04:01:52.931Z,96.9027
2024-03-24T04:02:55.972Z,97.1428
2024-03-24T04:03:58.942Z,97.0174
2024-03-24T04:05:02.044Z,97.0803
2024-03-24T04:06:05.067Z,96.9313
2024-03-24T04:07:08.119Z,96.7934
2024-03-24T04:08:11.186Z,96.8464
2024-03-24T04:09:14.213Z,96.9270
2024-03-24T04:10:17.395Z,97.1395
2024-03-24T04:11:20.420Z,97.1731
2024-03-24T04:12:23.472Z,97.2480
2024-03-24T04:13:26.775Z,97.1111
2024-03-24T04:14:29.795Z,97.1218
2024-03-24T04:15:32.781Z,97.0405
2024-03-24T04:16:35.970Z,96.9524
2024-03-24T04:17:38.953Z,96.7766
2024-03-24T04:18:42.023Z,96.6963
2024-03-24T04:19:45.028Z,96.5159
2024-03-24T04:20:48.294Z,96.6042
2024-03-24T04:21:51.343Z,96.4602
2024-03-24T04:22:54.373Z,96.3853
2024-03-24T04:23:57.423Z,96.3121
2024-03-24T04:25:00.528Z,96.1382
2024-03-24T04:26:03.525Z,96.3044
2024-03-24T04:27:06.544Z,96.3286
2024-03-24T04:28:09.557Z,96.3790
2024-03-24T04:29:12.562Z,96.4001
2024-03-24T04:30:15.682Z,96.5326
2024-03-24T04:31:18.689Z,96.4028
2024-03-24T04:32:21.745Z,96.2872
2024-03-24T04:33:24.755Z,96.2101
2024-03-24T04:34:27.766Z,96.4496
2024-03-24T04:35:30.857Z,96.3418
2024-03-24T04:36:34.043Z,96.4768
2024-03-24T04:37:37.046Z,96.4727
2024-03-24T04:38:40.059Z,96.7234
2024-03-24T04:39:43.326Z,96.9166
2024-03-24T04:40:46.396Z,96.9573
2024-03-24T04:41:49.475Z,96.6416
2024-03-24T04:42:52.643Z,96.6484
2024-03-24T04:43:55.782Z,96.6339
2024-03-24T04:44:58.843Z,96.7674
2024-03-24T04:46:01.894Z,96.7829
2024-03-24T04:47:04.919Z,97.0370
2024-03-24T04:48:07.955Z,96.9860
2024-03-24T04:49:11.016Z,97.2368
2024-03-24T04:50:14.042Z,97.3086
2024-03-24T04:51:17.143Z,97.3894
2024-03-24T04:52:20.184Z,97.5569
2024-03-24T04:53:23.252Z,97.6352
2024-03-24T04:54:26.515Z,97.6108
2024-03-24T04:55:29.586Z,97.4116
2024-03-24T04:56:32.612Z,97.3110
2024-03-24T04:57:35.632Z,97.5320
2024-03-24T04:58:38.691Z,97.6319
2024-03-24T04:59:41.784Z,97.6364
2024-03-24T05:00:44.868Z,97.4445
2024-03-24T05:01:47.884Z,97.2609
2024-03-24T05:02:50.943Z,97.3008
2024-03-24T05:03:53.961Z,97.0608
2024-03-24T05:04:56.956Z,97.0792
2024-03-24T05:06:00.049Z,97.3879
2024-03-24T05:07:03.088Z,97.2521
2024-03-24T05:08:06.114Z,97.4075
2024-03-24T05:09:09.123Z,97.8371
2024-03-24T05:10:12.219Z,97.8537
2024-03-24T05:11:15.203Z,98.0095
2024-03-24T05:12:18.351Z,98.3706
2024-03-24T05:13:21.343Z,98.4241
2024-03-24T05:14:24.387Z,98.4205
2024-03-24T05:15:27.455Z,98.6059
2024-03-24T05:16:30.489Z,98.6680
2024-03-24T05:17:33.631Z,98.6515
2024-03-24T05:18:36.800Z,98.4301
2024-03-24T05:19:39.834Z,98.5153
2024-03-24T05:20:42.869Z,98.4148
2024-03-24T05:21:45.935Z,98.4494
2024-03-24T05:22:49.036Z,98.4079
2024-03-24T05:23:52.104Z,98.4599
2024-03-24T05:24:55.362Z,98.7293
2024-03-24T05:25:58.365Z,98.8793
2024-03-24T05:27:01.465Z,98.8718
2024-03-24T05:28:04.543Z,98.8014
2024-03-24T05:29:07.572Z,98.5720
2024-03-24T05:30:10.643Z,98.6549
2024-03-24T05:31:13.919Z,98.6184
2024-03-24T05:32:16.952Z,98.5564
2024-03-24T05:33:19.992Z,98.6477
2024-03-24T05:34:23.032Z,98.5232
2024-03-24T05:35:26.068Z,98.5760
2024-03-24T05:36:28.561Z,98.5172
2024-03-24T05:37:30.997Z,98.5274
2024-03-24T05:38:33.593Z,98.4100
2024-03-24T05:39:36.049Z,98.4701
2024-03-24T05:40:38.533Z,98.5127
2024-03-24T05:41:41.109Z,98.4084
2024-03-24T05:42:43.624Z,98.3427
2024-03-24T05:43:46.237Z,98.1730
2024-03-24T05:44:48.727Z,98.2569
2024-03-24T05:45:51.191Z,98.1290
2024-03-24T05:46:53.771Z,98.2496
2024-03-24T05:47:56.225Z,98.2836
2024-03-24T05:48:58.701Z,98.4309
2024-03-24T05:50:01.198Z,98.4694
2024-03-24T05:51:03.699Z,98.5593
2024-03-24T05:52:06.161Z,98.4942
2024-03-24T05:53:08.808Z,98.3375
2024-03-24T05:54:11.315Z,97.9474
2024-03-24T05:55:13.756Z,98.0011
2024-03-24T05:56:16.307Z,98.1075
2024-03-24T05:57:18.792Z,97.9041
2024-03-24T05:58:21.255Z,97.8455
2024-03-24T05:59:23.896Z,97.7897
2024-03-24T06:00:26.505Z,97.5619
2024-03-24T06:01:28.922Z,97.5322
2024-03-24T06:02:31.360Z,97.5584
2024-03-24T06:03:34.087Z,97.3633
2024-03-24T06:04:36.482Z,97.2099
2024-03-24T06:05:38.900Z,97.0175
2024-03-24T06:06:41.353Z,96.8911
2024-03-24T06:07:43.811Z,96.7141
2024-03-24T06:08:46.375Z,96.6554
2024-03-24T06:09:48.791Z,96.3158
2024-03-24T06:10:51.514Z,96.0061
2024-03-24T06:11:54.033Z,95.9423
2024-03-24T06:12:56.440Z,96.0839
2024-03-24T06:13:58.960Z,96.0815
2024-03-24T06:15:01.382Z,95.6612
2024-03-24T06:16:03.832Z,95.2135
2024-03-24T06:17:06.257Z,95.0673
2024-03-24T06:18:08.945Z,95.0713
2024-03-24T06:19:14.213Z,95.1494
2024-03-24T06:20:13.735Z,95.6037
2024-03-24T06:21:16.157Z,95.2112
2024-03-24T06:22:18.574Z,95.5478
2024-03-24T06:23:21.022Z,95.2664
2024-03-24T06:24:23.461Z,94.7652
2024-03-24T06:25:25.911Z,94.6921
2024-03-24T06:26:28.474Z,94.2484
2024-03-24T06:27:30.925Z,93.5359
2024-03-24T06:28:33.603Z,92.8178
2024-03-24T06:29:36.047Z,93.1698
2024-03-24T06:30:38.667Z,92.5964
2024-03-24T06:31:43.842Z,92.7372
2024-03-24T06:32:44.808Z,92.2116
2024-03-24T06:33:47.277Z,92.4005
2024-03-24T06:34:49.713Z,92.4599
2024-03-24T06:35:52.311Z,91.4678
2024-03-24T06:36:54.718Z,91.3444
2024-03-24T06:37:57.179Z,91.8028
2024-03-24T06:38:59.604Z,91.6045
2024-03-24T06:40:02.031Z,91.8375
2024-03-24T06:41:04.479Z,91.8079
2024-03-24T06:42:07.027Z,91.4779
2024-03-24T06:43:09.521Z,91.5937
2024-03-24T06:44:11.914Z,91.2423
2024-03-24T06:45:14.382Z,91.2058
2024-03-24T06:46:16.958Z,90.6520
2024-03-24T06:47:19.398Z,90.1245
2024-03-24T06:48:21.865Z,90.2975
2024-03-24T06:49:24.303Z,90.1649
2024-03-24T06:50:26.874Z,89.4385
2024-03-24T06:51:29.312Z,89.3180
2024-03-24T06:52:32.040Z,90.0362
2024-03-24T06:53:34.800Z,90.2501
2024-03-24T06:54:37.370Z,90.4949
2024-03-24T06:55:39.794Z,90.7852
2024-03-24T06:56:42.554Z,91.5124
2024-03-24T06:57:45.284Z,90.4913
2024-03-24T06:58:47.745Z,90.1272
2024-03-24T06:59:50.182Z,90.1978
2024-03-24T07:00:52.618Z,90.3140
2024-03-24T07:01:55.200Z,90.1250
2024-03-24T07:02:57.638Z,90.2616
2024-03-24T07:04:00.299Z,90.5559
2024-03-24T07:05:02.760Z,90.8899
2024-03-24T07:06:05.429Z,90.8337
2024-03-24T07:07:07.842Z,90.9150
2024-03-24T07:08:10.279Z,91.0080
2024-03-24T07:09:12.742Z,90.8849
2024-03-24T07:10:15.183Z,89.8544
2024-03-24T07:11:17.762Z,90.3427
2024-03-24T07:12:20.189Z,90.9477
2024-03-24T07:13:22.830Z,90.2790
2024-03-24T07:14:25.272Z,90.3206
2024-03-24T07:15:27.741Z,89.6968
2024-03-24T07:16:30.199Z,89.3554
2024-03-24T07:17:32.621Z,89.5321
2024-03-24T07:18:35.041Z,88.7233
2024-03-24T07:19:37.601Z,89.2961
2024-03-24T07:20:40.040Z,88.1750
2024-03-24T07:21:42.448Z,86.9899
2024-03-24T07:22:44.940Z,87.2205
2024-03-24T07:23:47.385Z,86.1784
2024-03-24T07:24:49.930Z,86.0457
2024-03-24T07:25:52.632Z,86.3422
2024-03-24T07:26:55.133Z,85.1619
2024-03-24T07:27:58.069Z,86.0023
2024-03-24T07:29:01.124Z,86.1721
2024-03-24T07:30:04.161Z,86.1279
2024-03-24T07:31:07.180Z,86.5762
2024-03-24T07:32:10.231Z,86.6221
2024-03-24T07:33:13.410Z,87.0693
2024-03-24T07:34:16.434Z,86.6300
2024-03-24T07:35:19.486Z,86.9924
2024-03-24T07:36:22.509Z,87.4294
2024-03-24T07:37:25.520Z,87.1110
2024-03-24T07:38:28.543Z,87.0958
2024-03-24T07:39:31.576Z,86.1193
2024-03-24T07:40:34.871Z,84.5859
2024-03-24T07:41:37.914Z,84.3917
2024-03-24T07:42:43.515Z,84.1618
2024-03-24T07:43:44.061Z,82.7614
2024-03-24T07:44:47.111Z,83.4852
2024-03-24T07:45:50.127Z,84.0586
2024-03-24T07:46:53.226Z,84.3753
2024-03-24T07:47:56.258Z,83.5304
2024-03-24T07:48:59.298Z,84.4196
2024-03-24T07:50:02.335Z,84.5552
2024-03-24T07:51:05.342Z,83.5051
2024-03-24T07:52:08.361Z,84.2163
2024-03-24T07:53:11.390Z,85.1102
2024-03-24T07:54:14.526Z,84.8970
2024-03-24T07:55:17.584Z,83.6011
2024-03-24T07:56:20.557Z,84.1886
2024-03-24T07:57:23.831Z,83.5396
2024-03-24T07:58:27.053Z,83.8810
2024-03-24T07:59:30.198Z,84.3403
2024-03-24T08:00:33.253Z,84.4484
2024-03-24T08:01:36.305Z,83.8103
2024-03-24T08:02:39.387Z,83.7719
2024-03-24T08:03:42.381Z,84.4504
2024-03-24T08:04:45.471Z,84.8792
2024-03-24T08:05:48.548Z,84.1399
2024-03-24T08:06:51.630Z,82.7420
2024-03-24T08:07:56.440Z,82.4630
2024-03-24T08:08:56.422Z,81.3261
2024-03-24T08:09:59.651Z,79.3761
2024-03-24T08:11:02.703Z,78.0735
2024-03-24T08:12:05.831Z,77.4540
2024-03-24T08:13:08.841Z,78.4229
2024-03-24T08:14:11.936Z,77.9791
2024-03-24T08:15:14.953Z,77.4551
2024-03-24T08:16:17.965Z,77.2581
2024-03-24T08:17:21.267Z,77.9805
2024-03-24T08:18:24.301Z,78.2294
2024-03-24T08:19:27.341Z,80.0136
2024-03-24T08:20:30.431Z,78.9010
2024-03-24T08:21:33.522Z,77.5550
2024-03-24T08:22:36.804Z,76.7820
2024-03-24T08:23:39.909Z,77.4975
2024-03-24T08:24:42.928Z,78.5318
2024-03-24T08:25:45.896Z,78.1132
2024-03-24T08:26:48.968Z,78.6694
2024-03-24T08:27:51.981Z,78.7182
2024-03-24T08:28:55.007Z,77.8654
2024-03-24T08:29:58.052Z,75.2478
2024-03-24T08:31:01.061Z,75.6113
2024-03-24T08:32:04.074Z,74.6816
2024-03-24T08:33:07.181Z,73.7115
2024-03-24T08:34:10.220Z,72.8195
2024-03-24T08:35:13.221Z,73.4563
2024-03-24T08:36:16.629Z,72.0150
2024-03-24T08:37:19.696Z,73.2256
2024-03-24T08:38:22.869Z,74.4203
2024-03-24T08:39:25.889Z,75.2188
2024-03-24T08:40:31.120Z,76.1697
2024-03-24T08:41:31.911Z,75.6538
2024-03-24T08:42:34.904Z,74.6428
2024-03-24T08:43:37.899Z,74.6038
2024-03-24T08:44:40.958Z,74.9000
2024-03-24T08:45:43.994Z,74.6927
2024-03-24T08:46:47.043Z,74.2017
2024-03-24T08:47:50.058Z,72.8197
2024-03-24T08:48:53.087Z,72.4615
2024-03-24T08:49:56.147Z,72.2821
2024-03-24T08:50:59.126Z,72.5748
2024-03-24T08:52:02.253Z,72.7894
2024-03-24T08:53:05.258Z,74.2881
2024-03-24T08:54:08.567Z,76.2804
2024-03-24T08:55:11.704Z,75.4888
2024-03-24T08:56:14.700Z,76.0807
2024-03-24T08:57:17.736Z,77.0759
2024-03-24T08:58:20.800Z,77.6088
2024-03-24T08:59:23.996Z,77.2302
2024-03-24T09:00:27.190Z,77.1059
2024-03-24T09:01:30.283Z,77.0986
2024-03-24T09:02:33.503Z,76.2901
2024-03-24T09:03:36.600Z,76.3410
2024-03-24T09:04:39.690Z,76.6859
2024-03-24T09:05:42.756Z,74.4161
2024-03-24T09:06:45.769Z,75.9640
2024-03-24T09:07:48.817Z,71.5629
2024-03-24T09:08:51.865Z,72.2824
2024-03-24T09:09:54.893Z,74.1768
2024-03-24T09:10:57.888Z,70.4761
2024-03-24T09:12:01.046Z,70.6379
2024-03-24T09:13:04.060Z,68.3706
2024-03-24T09:14:07.076Z,67.2950
2024-03-24T09:15:10.267Z,66.6032
2024-03-24T09:16:13.239Z,64.9550
2024-03-24T09:17:16.392Z,63.0818
2024-03-24T09:18:19.495Z,62.1017
2024-03-24T09:19:22.548Z,63.5414
2024-03-24T09:20:25.620Z,62.1459
2024-03-24T09:21:28.643Z,61.6142
2024-03-24T09:22:31.657Z,62.4572
2024-03-24T09:23:34.706Z,60.0515
2024-03-24T09:24:37.752Z,58.1052
2024-03-24T09:25:40.772Z,56.4341
2024-03-24T09:26:43.822Z,56.5474
2024-03-24T09:27:46.869Z,53.7544
2024-03-24T09:28:49.889Z,53.0057
2024-03-24T09:29:52.989Z,52.9205
2024-03-24T09:30:56.033Z,53.2356
2024-03-24T09:31:59.075Z,52.3137
2024-03-24T09:33:02.092Z,53.2308
2024-03-24T09:34:05.354Z,56.5334
2024-03-24T09:35:13.272Z,55.1665
2024-03-24T09:36:10.583Z,53.9770
2024-03-24T09:37:13.575Z,57.4725
2024-03-24T09:38:16.856Z,60.3239
2024-03-24T09:39:19.962Z,61.1294
2024-03-24T09:40:23.054Z,57.0748
2024-03-24T09:41:26.096Z,63.2621
2024-03-24T09:42:29.100Z,65.3749
2024-03-24T09:43:32.160Z,63.9267
2024-03-24T09:44:35.234Z,59.9971
2024-03-24T09:45:38.260Z,58.2798
2024-03-24T09:46:41.242Z,61.0732
2024-03-24T09:47:44.301Z,62.3455
2024-03-24T09:48:47.301Z,63.0471
2024-03-24T09:49:50.319Z,63.4651
2024-03-24T09:50:53.393Z,57.3278
2024-03-24T09:51:56.452Z,56.0167
2024-03-24T09:52:59.489Z,53.7274
2024-03-24T09:54:02.553Z,57.0361
2024-03-24T09:55:05.580Z,54.8892
2024-03-24T09:56:08.608Z,52.7982
2024-03-24T09:57:11.663Z,54.3843
2024-03-24T09:58:17.214Z,56.1023
2024-03-24T09:59:17.462Z,57.5705
2024-03-24T10:00:20.724Z,56.6018
2024-03-24T10:01:23.826Z,52.1575
2024-03-24T10:02:26.845Z,49.5738
2024-03-24T10:03:29.922Z,53.0103
2024-03-24T10:04:32.922Z,51.8712
2024-03-24T10:05:35.981Z,54.7353
2024-03-24T10:06:38.996Z,56.3109
2024-03-24T10:07:42.053Z,57.8929
2024-03-24T10:08:45.104Z,58.6453
2024-03-24T10:09:48.187Z,58.5321
2024-03-24T10:10:51.163Z,59.4774
2024-03-24T10:11:54.314Z,61.3274
2024-03-24T10:12:57.334Z,62.0064
2024-03-24T10:14:00.364Z,61.1606
2024-03-24T10:15:03.389Z,61.5797
2024-03-24T10:16:06.400Z,62.0430
2024-03-24T10:17:09.433Z,62.5872
2024-03-24T10:18:09.652Z,62.3382
2024-03-24T10:19:12.697Z,62.7070
2024-03-24T10:20:15.746Z,62.1578
2024-03-24T10:21:18.741Z,63.8888
2024-03-24T10:22:22.090Z,65.2687
2024-03-24T10:23:25.100Z,67.8344
2024-03-24T10:24:28.140Z,68.6408
2024-03-24T10:25:31.198Z,69.3386
2024-03-24T10:26:34.269Z,70.1829
2024-03-24T10:27:37.297Z,70.6253
2024-03-24T10:28:40.313Z,70.5007
2024-03-24T10:29:43.429Z,71.2334
2024-03-24T10:30:46.445Z,72.1990
2024-03-24T10:31:52.731Z,71.8296
2024-03-24T10:32:52.843Z,71.6785
2024-03-24T10:33:55.848Z,70.4519
2024-03-24T10:34:58.858Z,68.6647
2024-03-24T10:36:02.032Z,65.6767
2024-03-24T10:37:05.041Z,64.4502
2024-03-24T10:38:08.189Z,64.9699
2024-03-24T10:39:11.242Z,66.0566
2024-03-24T10:40:14.371Z,67.9293
2024-03-24T10:41:17.420Z,65.2316
2024-03-24T10:42:20.459Z,63.8499
2024-03-24T10:43:23.525Z,62.7653
2024-03-24T10:44:26.502Z,61.1245
2024-03-24T10:45:29.542Z,63.4078
2024-03-24T10:46:32.579Z,63.8910
2024-03-24T10:47:35.712Z,62.9498
2024-03-24T10:48:38.730Z,64.0601
2024-03-24T10:49:41.789Z,64.8741
2024-03-24T10:50:44.814Z,63.0710
2024-03-24T10:51:47.855Z,62.3959
2024-03-24T10:52:53.250Z,60.2588
2024-03-24T10:53:53.318Z,61.8517
2024-03-24T10:54:56.348Z,59.7262
2024-03-24T10:55:59.379Z,59.5280
2024-03-24T10:57:02.394Z,60.5078
2024-03-24T10:58:05.413Z,59.6695
2024-03-24T10:59:11.307Z,60.1881
2024-03-24T11:00:08.717Z,63.0885
2024-03-24T11:01:11.999Z,62.6006
2024-03-24T11:02:15.077Z,64.5621
2024-03-24T11:03:18.131Z,65.2812
2024-03-24T11:04:21.149Z,67.5354
2024-03-24T11:05:24.160Z,69.6822
2024-03-24T11:06:27.180Z,71.1387
2024-03-24T11:07:30.246Z,75.2883
2024-03-24T11:08:33.269Z,77.3286
2024-03-24T11:09:36.289Z,80.1979
2024-03-24T11:10:39.346Z,81.1577
2024-03-24T11:11:42.478Z,82.8188
2024-03-24T11:12:45.609Z,83.6793
2024-03-24T11:13:48.778Z,86.1245
2024-03-24T11:14:51.880Z,85.7451
2024-03-24T11:15:54.904Z,84.6518
2024-03-24T11:16:57.408Z,84.3152
2024-03-24T11:17:59.971Z,82.2549
2024-03-24T11:19:02.420Z,82.2896
2024-03-24T11:20:04.886Z,80.6259
2024-03-24T11:21:07.347Z,78.0028
2024-03-24T11:22:09.772Z,76.6890
2024-03-24T11:23:12.292Z,78.3776
2024-03-24T11:24:14.747Z,78.1509
2024-03-24T11:25:17.350Z,76.4588
2024-03-24T11:26:19.898Z,75.6403
2024-03-24T11:27:22.926Z,76.5096
2024-03-24T11:28:23.083Z,74.3596
2024-03-24T11:29:26.177Z,76.2730
2024-03-24T11:30:29.177Z,72.6628
2024-03-24T11:31:32.167Z,71.3044
2024-03-24T11:32:35.178Z,73.5421
2024-03-24T11:33:38.220Z,71.9054
2024-03-24T11:34:41.248Z,73.2876
2024-03-24T11:35:44.340Z,74.3830
2024-03-24T11:36:47.375Z,75.6649
2024-03-24T11:37:50.445Z,74.3311
2024-03-24T11:38:53.418Z,71.6353
2024-03-24T11:39:56.495Z,72.7672
2024-03-24T11:40:59.539Z,70.2693
2024-03-24T11:42:02.592Z,68.5778
2024-03-24T11:43:05.619Z,66.4207
2024-03-24T11:44:08.645Z,67.3100
2024-03-24T11:45:11.727Z,64.5665
2024-03-24T11:46:14.717Z,63.3611
2024-03-24T11:47:17.778Z,62.3403
2024-03-24T11:48:20.829Z,63.3313
2024-03-24T11:49:23.849Z,61.9701
2024-03-24T11:50:27.239Z,60.4213
2024-03-24T11:51:30.262Z,60.9203
2024-03-24T11:52:33.366Z,60.9698
2024-03-24T11:53:36.395Z,61.7132
2024-03-24T11:54:39.420Z,60.4124
2024-03-24T11:55:42.419Z,61.7749
2024-03-24T11:56:45.465Z,59.4792
2024-03-24T11:57:48.529Z,58.6129
2024-03-24T11:58:51.540Z,60.2922
2024-03-24T11:59:54.576Z,59.8816
2024-03-24T12:00:57.628Z,60.8033
2024-03-24T12:02:00.662Z,62.5459
2024-03-24T12:03:03.747Z,59.3157
2024-03-24T12:04:06.736Z,59.8961
2024-03-24T12:05:09.748Z,60.8199
2024-03-24T12:06:12.798Z,60.9148
2024-03-24T12:07:15.898Z,64.1463
2024-03-24T12:08:18.908Z,61.5793
2024-03-24T12:09:21.921Z,62.4514
2024-03-24T12:10:24.987Z,60.4489
2024-03-24T12:11:28.027Z,60.0882
2024-03-24T12:12:31.067Z,59.5390
2024-03-24T12:13:34.116Z,58.2796
2024-03-24T12:14:37.146Z,56.9504
2024-03-24T12:15:40.171Z,58.7542
2024-03-24T12:16:43.247Z,59.2623
2024-03-24T12:17:46.287Z,59.5679
2024-03-24T12:18:49.306Z,57.8396
2024-03-24T12:19:52.372Z,57.2580
2024-03-24T12:20:55.504Z,53.0093
2024-03-24T12:21:58.570Z,51.7557
2024-03-24T12:23:01.606Z,53.9039
2024-03-24T12:24:04.826Z,51.8349
2024-03-24T12:25:07.824Z,53.4916
2024-03-24T12:26:10.834Z,56.2804
2024-03-24T12:27:13.940Z,54.9299
2024-03-24T12:28:16.985Z,52.0392
2024-03-24T12:29:20.020Z,52.0740
2024-03-24T12:30:23.074Z,48.9869
2024-03-24T12:31:26.426Z,51.4036
2024-03-24T12:32:29.461Z,49.9348
2024-03-24T12:33:32.499Z,52.8463
2024-03-24T12:34:35.540Z,54.3677
2024-03-24T12:35:38.588Z,54.3494
2024-03-24T12:36:41.618Z,56.5387
2024-03-24T12:37:44.698Z,56.5857
2024-03-24T12:38:47.719Z,57.5764
2024-03-24T12:39:50.736Z,56.6490
2024-03-24T12:40:55.245Z,57.5309